KNAK

United States Naval Academy Airport

Annapolis, Maryland, USA
METAR KNAK 180054Z AUTO 29007KT 10SM CLR 17/02 A3012 RMK AO2 SLP202 T01670017
Observed Flight Rules
Oct-18 @ 00:54 UTC (46 minutes ago) Visual Flight Rules
Wind Visibility Clouds
290° at 7 knots 10 miles
  • Clear skies
Temperatures Readings
Current 17°C / 63°F
Dewpoint 2°C / 36°F
Humidity 37%
Altimeter 30.12" Hg
Pressure 1020.2 hPa
Elevation 2
METAR KNAK 180054Z AUTO 29007KT 10SM CLR 17/02 A3012 RMK AO2 SLP202 T01670017
Observed Flight Rules
Oct-18 @ 00:54 UTC
(46 minutes ago)
VFR
Wind Visibility
290° at 7 knots 10 miles
Clouds
  • Clear skies
Temperature Dewpoint
17°C / 63°F 2°C / 36°F
Humidity Altimeter Pressure
37% 30.12" Hg 1020.2 hPa